createdAt,value
2022-08-10T00:02:17.272Z,4.70
2022-08-10T00:04:44.321Z,4.50
2022-08-10T00:07:11.532Z,4.40
2022-08-10T00:09:51.106Z,4.00
2022-08-10T00:12:19.190Z,3.80
2022-08-10T00:14:46.761Z,4.10
2022-08-10T00:17:13.671Z,4.60
2022-08-10T00:20:03.323Z,4.20
2022-08-10T00:22:27.592Z,4.30
2022-08-10T00:24:57.465Z,4.10
2022-08-10T00:28:02.256Z,3.90
2022-08-10T00:30:13.129Z,3.40
2022-08-10T00:35:19.865Z,3.30
2022-08-10T00:37:56.379Z,3.70
2022-08-10T00:40:36.978Z,3.80
2022-08-10T00:43:08.250Z,4.00
2022-08-10T00:45:36.698Z,3.80
2022-08-10T00:48:04.803Z,4.10
2022-08-10T00:50:32.361Z,4.50
2022-08-10T00:52:59.387Z,5.50
2022-08-10T00:55:27.074Z,5.00
2022-08-10T00:57:55.696Z,5.50
2022-08-10T01:00:26.094Z,5.40
2022-08-10T01:02:53.385Z,5.80
2022-08-10T01:05:21.306Z,5.40
2022-08-10T01:08:12.829Z,5.70
2022-08-10T01:12:37.313Z,5.70
2022-08-10T01:14:30.414Z,5.40
2022-08-10T01:17:15.106Z,5.70
2022-08-10T01:19:41.868Z,6.40
2022-08-10T01:22:08.636Z,6.90
2022-08-10T01:25:03.430Z,6.80
2022-08-10T01:27:45.329Z,6.50
2022-08-10T01:30:14.808Z,6.30
2022-08-10T01:33:00.756Z,6.20
2022-08-10T01:35:46.273Z,6.10
2022-08-10T01:38:23.164Z,5.90
2022-08-10T01:40:56.547Z,6.20
2022-08-10T01:43:27.505Z,5.70
2022-08-10T01:45:59.131Z,6.10
2022-08-10T01:48:49.574Z,5.80
2022-08-10T01:51:48.806Z,5.60
2022-08-10T01:54:20.598Z,6.30
2022-08-10T01:56:52.230Z,5.60
2022-08-10T01:59:25.587Z,4.90
2022-08-10T02:01:59.628Z,5.30
2022-08-10T02:04:29.092Z,5.60
2022-08-10T02:06:58.512Z,4.90
2022-08-10T02:09:30.884Z,5.50
2022-08-10T02:12:08.771Z,5.40
2022-08-10T02:14:45.563Z,5.40
2022-08-10T02:18:00.936Z,4.50
2022-08-10T02:20:17.617Z,4.90
2022-08-10T02:22:50.799Z,4.90
2022-08-10T02:25:40.670Z,5.30
2022-08-10T02:28:09.418Z,4.80
2022-08-10T02:30:37.615Z,5.10
2022-08-10T02:33:06.379Z,5.40
2022-08-10T02:35:54.014Z,5.40
2022-08-10T02:38:59.559Z,4.90
2022-08-10T02:42:18.457Z,5.40
2022-08-10T02:45:20.480Z,5.70
2022-08-10T02:47:52.683Z,5.40
2022-08-10T02:50:35.037Z,5.20
2022-08-10T02:53:09.012Z,5.50
2022-08-10T02:56:06.100Z,5.70
2022-08-10T02:58:47.246Z,6.10
2022-08-10T03:01:22.675Z,5.70
2022-08-10T03:03:58.595Z,5.40
2022-08-10T03:06:34.466Z,5.90
2022-08-10T03:09:06.021Z,5.70
2022-08-10T03:12:35.595Z,5.70
2022-08-10T03:14:23.818Z,5.60
2022-08-10T03:16:53.949Z,5.20
2022-08-10T03:20:34.365Z,4.70
2022-08-10T03:22:11.997Z,5.20
2022-08-10T03:24:41.048Z,4.80
2022-08-10T03:27:09.427Z,5.10
2022-08-10T03:30:31.930Z,5.00
2022-08-10T03:32:25.131Z,5.20
2022-08-10T03:34:53.460Z,5.30
2022-08-10T03:37:20.560Z,5.10
2022-08-10T03:39:47.889Z,5.50
2022-08-10T03:42:16.938Z,4.70
2022-08-10T03:44:49.866Z,4.80
2022-08-10T03:47:19.567Z,4.40
2022-08-10T03:49:49.036Z,4.30
2022-08-10T03:52:18.179Z,3.90
2022-08-10T03:54:46.898Z,4.10
2022-08-10T03:57:14.047Z,3.20
2022-08-10T03:59:41.505Z,3.90
2022-08-10T04:02:43.692Z,3.90
2022-08-10T04:04:55.993Z,3.70
2022-08-10T04:07:23.438Z,3.30
2022-08-10T04:09:54.248Z,3.50
2022-08-10T04:12:24.198Z,4.30
2022-08-10T04:14:53.137Z,3.60
2022-08-10T04:18:02.622Z,3.80
2022-08-10T04:20:34.652Z,3.30
2022-08-10T04:23:09.115Z,3.70
2022-08-10T04:25:39.104Z,3.30
2022-08-10T04:28:10.929Z,2.70
2022-08-10T04:30:40.177Z,2.90
2022-08-10T04:33:10.720Z,2.70
2022-08-10T04:35:39.156Z,2.70
2022-08-10T04:38:07.965Z,2.70
2022-08-10T04:40:34.944Z,2.40
2022-08-10T04:43:11.839Z,2.70
2022-08-10T04:45:49.751Z,2.60
2022-08-10T04:48:40.613Z,2.80
2022-08-10T04:51:18.002Z,2.50
2022-08-10T04:54:04.905Z,2.70
2022-08-10T04:56:37.351Z,2.90
2022-08-10T04:59:09.932Z,2.20
2022-08-10T05:02:22.745Z,2.50
2022-08-10T05:04:36.023Z,2.60
2022-08-10T05:07:09.424Z,2.20
2022-08-10T05:10:04.971Z,2.50
2022-08-10T05:12:26.829Z,1.90
2022-08-10T05:14:54.588Z,2.30
2022-08-10T05:17:22.973Z,2.20
2022-08-10T05:20:03.521Z,2.10
2022-08-10T05:25:09.602Z,3.60
2022-08-10T05:27:36.703Z,3.60
2022-08-10T05:30:05.111Z,2.70
2022-08-10T05:32:57.245Z,2.40
2022-08-10T05:35:21.718Z,2.30
2022-08-10T05:38:09.232Z,2.50
2022-08-10T05:40:46.231Z,1.90
2022-08-10T05:43:20.102Z,2.20
2022-08-10T05:46:16.659Z,2.40
2022-08-10T05:48:55.139Z,2.20
2022-08-10T05:51:25.517Z,2.30
2022-08-10T05:54:04.107Z,2.40
2022-08-10T05:56:54.327Z,2.30
2022-08-10T06:00:10.713Z,2.80
2022-08-10T06:02:31.478Z,2.40
2022-08-10T06:05:13.232Z,2.50
2022-08-10T06:08:18.834Z,3.10
2022-08-10T06:12:21.892Z,2.70
2022-08-10T06:14:12.619Z,2.60
2022-08-10T06:16:42.891Z,2.30
2022-08-10T06:19:14.795Z,2.70
2022-08-10T06:21:54.999Z,2.80
2022-08-10T06:24:35.784Z,3.00
2022-08-10T06:27:03.795Z,2.70
2022-08-10T06:29:33.648Z,2.80
2022-08-10T06:32:03.443Z,2.70
2022-08-10T06:34:39.582Z,2.60
2022-08-10T06:37:08.042Z,2.60
2022-08-10T06:39:36.603Z,2.70
2022-08-10T06:42:18.354Z,2.80
2022-08-10T06:44:59.290Z,2.60
2022-08-10T06:47:59.103Z,2.40
2022-08-10T06:50:59.125Z,3.20
2022-08-10T06:53:54.055Z,3.10
2022-08-10T06:56:38.015Z,3.20
2022-08-10T06:59:22.718Z,2.90
2022-08-10T07:02:25.290Z,3.20
2022-08-10T07:05:01.922Z,3.10
2022-08-10T07:07:34.400Z,3.30
2022-08-10T07:10:01.279Z,2.90
2022-08-10T07:12:30.336Z,3.00
2022-08-10T07:14:58.834Z,3.90
2022-08-10T07:17:28.188Z,2.60
2022-08-10T07:19:58.886Z,2.60
2022-08-10T07:23:22.666Z,2.80
2022-08-10T07:25:24.869Z,2.00
2022-08-10T07:28:00.923Z,2.40
2022-08-10T07:30:37.806Z,1.70
2022-08-10T07:33:06.990Z,2.40
2022-08-10T07:35:43.096Z,1.20
2022-08-10T07:38:23.224Z,1.50
2022-08-10T07:40:53.453Z,1.30
2022-08-10T07:43:24.718Z,1.40
2022-08-10T07:45:53.280Z,1.60
2022-08-10T07:48:26.702Z,1.90
2022-08-10T07:50:59.513Z,1.40
2022-08-10T07:53:31.974Z,1.80
2022-08-10T07:56:13.375Z,1.10
2022-08-10T07:58:56.747Z,1.30
2022-08-10T08:01:31.298Z,1.20
2022-08-10T08:04:05.388Z,1.00
2022-08-10T08:06:42.230Z,1.10
2022-08-10T08:09:11.013Z,0.90
2022-08-10T08:11:42.770Z,1.10
2022-08-10T08:14:11.493Z,1.60
2022-08-10T08:16:43.816Z,1.50
2022-08-10T08:19:28.964Z,1.30
2022-08-10T08:24:09.203Z,1.40
2022-08-10T08:24:52.134Z,1.80
2022-08-10T08:27:20.734Z,1.70
2022-08-10T08:29:50.188Z,1.60
2022-08-10T08:32:23.249Z,1.60
2022-08-10T08:35:07.806Z,2.40
2022-08-10T08:38:32.408Z,1.50
2022-08-10T08:40:34.620Z,1.70
2022-08-10T08:43:44.106Z,1.60
2022-08-10T08:47:04.720Z,1.20
2022-08-10T08:50:35.006Z,1.80
2022-08-10T08:54:01.629Z,1.80
2022-08-10T08:56:38.840Z,3.90
2022-08-10T09:02:14.546Z,1.80
2022-08-10T09:05:10.541Z,2.00
2022-08-10T09:08:26.974Z,1.90
2022-08-10T09:11:08.227Z,1.90
2022-08-10T09:13:48.485Z,1.80
2022-08-10T09:16:47.382Z,2.00
2022-08-10T09:19:42.838Z,2.20
2022-08-10T09:22:51.735Z,1.90
2022-08-10T09:25:25.744Z,2.00
2022-08-10T09:28:04.976Z,2.00
2022-08-10T09:31:10.196Z,2.10
2022-08-10T09:36:25.988Z,2.00
2022-08-10T09:36:56.063Z,2.00
2022-08-10T09:40:12.650Z,1.60
2022-08-10T09:43:21.956Z,2.40
2022-08-10T09:46:27.772Z,1.90
2022-08-10T09:49:54.283Z,1.40
2022-08-10T09:52:38.811Z,2.10
2022-08-10T09:56:17.382Z,1.40
2022-08-10T09:58:51.512Z,1.50
2022-08-10T10:02:04.510Z,1.60
2022-08-10T10:07:29.608Z,1.50
2022-08-10T10:10:16.370Z,1.20
2022-08-10T10:12:59.656Z,1.10
2022-08-10T10:15:44.767Z,1.50
2022-08-10T10:18:29.495Z,1.10
2022-08-10T10:21:24.182Z,1.10
2022-08-10T10:24:21.655Z,1.10
2022-08-10T10:26:55.699Z,1.20
2022-08-10T10:29:59.603Z,1.50
2022-08-10T10:32:58.423Z,1.30
2022-08-10T10:35:51.540Z,0.90
2022-08-10T10:38:23.039Z,1.00
2022-08-10T10:41:03.236Z,1.10
2022-08-10T10:43:54.823Z,0.70
2022-08-10T10:46:56.013Z,0.60
2022-08-10T10:49:25.604Z,0.70
2022-08-10T10:52:47.668Z,0.50
2022-08-10T10:56:13.385Z,1.10
2022-08-10T10:58:51.500Z,2.10
2022-08-10T11:01:30.887Z,1.40
2022-08-10T11:04:20.395Z,1.70
2022-08-10T11:07:11.248Z,1.60
2022-08-10T11:10:03.905Z,0.80
2022-08-10T11:14:25.317Z,0.80
2022-08-10T11:16:37.150Z,1.00
2022-08-10T11:20:02.649Z,0.70
2022-08-10T11:22:23.477Z,0.70
2022-08-10T11:25:29.390Z,0.70
2022-08-10T11:28:05.131Z,0.70
2022-08-10T11:31:14.679Z,0.60
2022-08-10T11:34:48.887Z,0.70
2022-08-10T11:37:15.117Z,0.70
2022-08-10T11:39:55.704Z,0.60
2022-08-10T11:42:54.371Z,1.00
2022-08-10T11:45:34.652Z,0.70
2022-08-10T11:48:53.318Z,0.70
2022-08-10T11:51:11.224Z,0.70
2022-08-10T11:54:07.658Z,0.70
2022-08-10T11:56:52.934Z,0.80
2022-08-10T11:59:44.149Z,0.90
2022-08-10T12:02:14.909Z,0.80
2022-08-10T12:04:50.019Z,0.90
2022-08-10T12:10:04.949Z,1.00
2022-08-10T12:10:13.858Z,1.50
2022-08-10T12:13:27.354Z,1.50
2022-08-10T12:16:06.055Z,1.70
2022-08-10T12:18:45.419Z,1.30
2022-08-10T12:21:29.968Z,1.60
2022-08-10T12:24:08.170Z,1.10
2022-08-10T12:26:44.140Z,1.30
2022-08-10T12:29:48.053Z,1.30
2022-08-10T12:32:53.298Z,1.50
2022-08-10T12:36:16.925Z,1.60
2022-08-10T12:38:56.790Z,1.60
2022-08-10T12:41:44.293Z,1.40
2022-08-10T12:44:54.235Z,1.50
2022-08-10T12:48:23.835Z,1.20
2022-08-10T12:51:18.210Z,2.00
2022-08-10T12:54:05.359Z,1.30
2022-08-10T12:56:40.017Z,1.10
2022-08-10T12:59:11.887Z,1.10
2022-08-10T13:02:07.454Z,1.50
2022-08-10T13:04:34.856Z,1.20
2022-08-10T13:07:06.114Z,0.90
2022-08-10T13:09:34.559Z,1.90
2022-08-10T13:12:45.100Z,1.30
2022-08-10T13:15:49.646Z,1.40
2022-08-10T13:18:22.578Z,1.50
2022-08-10T13:20:59.976Z,1.00
2022-08-10T13:23:31.058Z,1.00
2022-08-10T13:26:02.411Z,1.10
2022-08-10T13:28:55.429Z,1.00
2022-08-10T13:32:04.263Z,1.10
2022-08-10T13:34:41.246Z,1.00
2022-08-10T13:37:15.550Z,1.00
2022-08-10T13:39:59.530Z,1.00
2022-08-10T13:42:39.206Z,1.00
2022-08-10T13:45:19.807Z,1.10
2022-08-10T13:47:53.654Z,1.30
2022-08-10T13:50:34.682Z,1.10
2022-08-10T13:53:15.488Z,1.40
2022-08-10T13:55:54.608Z,1.10
2022-08-10T13:58:36.554Z,1.30
2022-08-10T14:01:17.232Z,1.20
2022-08-10T14:03:47.222Z,1.00
2022-08-10T14:06:16.789Z,0.90
2022-08-10T14:08:53.172Z,1.20
2022-08-10T14:11:22.544Z,1.00
2022-08-10T14:14:13.572Z,1.00
2022-08-10T14:16:45.322Z,1.20
2022-08-10T14:19:18.478Z,0.90
2022-08-10T14:21:45.893Z,0.90
2022-08-10T14:24:26.592Z,1.20
2022-08-10T14:27:15.960Z,0.90
2022-08-10T14:29:47.897Z,1.10
2022-08-10T14:32:21.243Z,1.50
2022-08-10T14:36:16.190Z,1.00
2022-08-10T14:37:54.406Z,0.90
2022-08-10T14:40:25.452Z,0.70
2022-08-10T14:43:08.536Z,0.70
2022-08-10T14:45:38.111Z,0.80
2022-08-10T14:48:33.390Z,1.20
2022-08-10T14:51:02.623Z,0.90
2022-08-10T14:53:34.960Z,1.10
2022-08-10T14:56:10.553Z,1.30
2022-08-10T14:59:05.371Z,1.00
2022-08-10T15:02:00.743Z,0.90
2022-08-10T15:04:34.867Z,1.10
2022-08-10T15:07:20.826Z,1.00
2022-08-10T15:10:00.967Z,1.20
2022-08-10T15:12:40.167Z,0.90
2022-08-10T15:15:11.796Z,1.30
2022-08-10T15:17:53.101Z,1.00
2022-08-10T15:20:24.507Z,1.70
2022-08-10T15:22:58.518Z,1.20
2022-08-10T15:25:28.014Z,1.20
2022-08-10T15:28:09.707Z,2.00
2022-08-10T15:30:46.799Z,1.20
2022-08-10T15:34:04.311Z,0.90
2022-08-10T15:37:36.031Z,1.40
2022-08-10T15:40:25.091Z,1.30
2022-08-10T15:43:05.681Z,1.30
2022-08-10T15:46:04.627Z,1.20
2022-08-10T15:48:52.565Z,1.20
2022-08-10T15:51:57.331Z,1.10
2022-08-10T15:54:37.490Z,1.50
2022-08-10T15:57:12.840Z,1.50
2022-08-10T16:00:18.076Z,1.30
2022-08-10T16:03:00.377Z,1.40
2022-08-10T16:06:00.307Z,1.40
2022-08-10T16:08:28.221Z,1.20
2022-08-10T16:11:07.611Z,1.40
2022-08-10T16:13:50.193Z,1.50
2022-08-10T16:16:35.613Z,1.20
2022-08-10T16:19:12.068Z,1.00
2022-08-10T16:22:37.246Z,1.20
2022-08-10T16:24:56.429Z,1.30
2022-08-10T16:27:29.762Z,1.40
2022-08-10T16:30:01.693Z,1.30
2022-08-10T16:32:33.525Z,1.40
2022-08-10T16:35:04.651Z,1.50
2022-08-10T16:37:58.048Z,2.00
2022-08-10T16:40:29.508Z,1.60
2022-08-10T16:42:59.383Z,1.70
2022-08-10T16:45:31.123Z,1.50
2022-08-10T16:47:59.018Z,1.40
2022-08-10T16:50:38.165Z,1.30
2022-08-10T16:53:10.730Z,1.40
2022-08-10T16:55:48.688Z,1.40
2022-08-10T16:58:39.559Z,1.30
2022-08-10T17:01:10.241Z,1.70
2022-08-10T17:04:08.042Z,1.50
2022-08-10T17:06:51.315Z,1.20
2022-08-10T17:09:26.422Z,1.70
2022-08-10T17:11:56.060Z,2.10
2022-08-10T17:14:28.131Z,1.80
2022-08-10T17:17:05.694Z,2.30
2022-08-10T17:19:43.007Z,2.00
2022-08-10T17:22:22.664Z,1.90
2022-08-10T17:25:02.367Z,1.40
2022-08-10T17:28:03.105Z,1.70
2022-08-10T17:30:34.009Z,1.60
2022-08-10T17:33:10.499Z,1.80
2022-08-10T17:35:40.559Z,1.70
2022-08-10T17:38:21.049Z,1.70
2022-08-10T17:41:10.379Z,1.50
2022-08-10T17:43:46.558Z,2.10
2022-08-10T17:46:31.983Z,2.40
2022-08-10T17:51:33.715Z,2.30
2022-08-10T17:54:06.459Z,2.60
2022-08-10T17:56:37.844Z,5.80
2022-08-10T17:59:17.467Z,2.90
2022-08-10T18:02:01.670Z,3.00
2022-08-10T18:04:41.740Z,3.70
2022-08-10T18:07:13.526Z,1.80
2022-08-10T18:09:49.288Z,1.60
2022-08-10T18:12:40.257Z,1.70
2022-08-10T18:15:14.163Z,1.90
2022-08-10T18:17:49.889Z,1.90
2022-08-10T18:20:20.347Z,2.00
2022-08-10T18:22:56.925Z,1.90
2022-08-10T18:25:29.363Z,2.50
2022-08-10T18:28:00.996Z,1.90
2022-08-10T18:33:08.700Z,1.50
2022-08-10T18:35:37.941Z,1.70
2022-08-10T18:38:07.067Z,2.40
2022-08-10T18:40:39.414Z,1.90
2022-08-10T18:44:05.669Z,2.60
2022-08-10T18:45:59.676Z,2.00
2022-08-10T18:48:38.810Z,2.20
2022-08-10T18:51:07.326Z,1.50
2022-08-10T18:53:47.442Z,1.70
2022-08-10T18:56:28.728Z,2.10
2022-08-10T19:00:03.843Z,1.60
2022-08-10T19:03:37.940Z,1.60
2022-08-10T19:06:51.464Z,1.80
2022-08-10T19:10:07.940Z,1.50
2022-08-10T19:13:16.876Z,1.60
2022-08-10T19:16:18.683Z,2.20
2022-08-10T19:19:04.645Z,2.20
2022-08-10T19:21:45.908Z,2.60
2022-08-10T19:24:32.749Z,2.00
2022-08-10T19:27:29.614Z,2.20
2022-08-10T19:30:28.483Z,2.10
2022-08-10T19:33:32.888Z,1.80
2022-08-10T19:36:14.861Z,1.50
2022-08-10T19:39:50.481Z,1.70
2022-08-10T19:42:44.129Z,2.00
2022-08-10T19:45:56.244Z,2.00
2022-08-10T19:48:43.777Z,1.90
2022-08-10T19:51:29.842Z,2.00
2022-08-10T19:54:08.567Z,2.00
2022-08-10T19:56:39.301Z,1.90
2022-08-10T20:00:17.614Z,1.90
2022-08-10T20:02:22.857Z,1.80
2022-08-10T20:05:22.088Z,1.90
2022-08-10T20:08:17.739Z,1.60
2022-08-10T20:10:58.195Z,1.90
2022-08-10T20:13:56.475Z,2.00
2022-08-10T20:16:34.209Z,2.50
2022-08-10T20:19:52.735Z,2.00
2022-08-10T20:23:16.048Z,2.10
2022-08-10T20:26:17.984Z,2.20
2022-08-10T20:29:16.512Z,1.80
2022-08-10T20:32:17.204Z,2.00
2022-08-10T20:37:22.495Z,2.10
2022-08-10T20:40:20.573Z,2.30
2022-08-10T20:43:06.051Z,2.50
2022-08-10T20:46:08.994Z,2.10
2022-08-10T20:48:45.824Z,2.30
2022-08-10T20:51:25.890Z,2.10
2022-08-10T20:54:15.348Z,2.50
2022-08-10T20:57:56.311Z,2.90
2022-08-10T21:00:12.045Z,2.50
2022-08-10T21:03:31.446Z,2.50
2022-08-10T21:06:31.420Z,2.80
2022-08-10T21:09:14.023Z,2.40
2022-08-10T21:12:20.706Z,2.80
2022-08-10T21:15:15.904Z,2.90
2022-08-10T21:18:05.607Z,2.90
2022-08-10T21:20:47.142Z,2.40
2022-08-10T21:23:19.141Z,2.80
2022-08-10T21:26:10.254Z,2.90
2022-08-10T21:29:21.581Z,2.70
2022-08-10T21:32:15.836Z,2.60
2022-08-10T21:35:02.023Z,3.20
2022-08-10T21:37:57.059Z,2.60
2022-08-10T21:40:43.839Z,3.10
2022-08-10T21:44:08.131Z,3.30
2022-08-10T21:47:06.243Z,3.20
2022-08-10T21:50:27.655Z,2.70
2022-08-10T21:53:44.781Z,3.20
2022-08-10T21:56:47.745Z,2.80
2022-08-10T21:59:58.034Z,2.80
2022-08-10T22:02:51.430Z,2.90
2022-08-10T22:05:53.673Z,3.30
2022-08-10T22:08:54.315Z,3.30
2022-08-10T22:11:44.081Z,3.20
2022-08-10T22:14:33.918Z,2.90
2022-08-10T22:18:00.812Z,3.20
2022-08-10T22:20:49.723Z,2.90
2022-08-10T22:24:18.829Z,3.20
2022-08-10T22:27:47.428Z,2.80
2022-08-10T22:30:40.136Z,2.80
2022-08-10T22:33:59.937Z,2.80
2022-08-10T22:37:13.729Z,2.70
2022-08-10T22:43:13.723Z,2.60
2022-08-10T22:46:24.355Z,2.40
2022-08-10T22:49:00.456Z,2.40
2022-08-10T22:51:56.963Z,3.50
2022-08-10T22:54:59.771Z,2.90
2022-08-10T22:57:45.349Z,2.80
2022-08-10T23:00:30.702Z,3.30
2022-08-10T23:03:23.647Z,3.20
2022-08-10T23:06:13.450Z,2.80
2022-08-10T23:09:05.061Z,2.70
2022-08-10T23:11:46.170Z,2.60
2022-08-10T23:14:17.563Z,2.80
2022-08-10T23:17:12.794Z,2.50
2022-08-10T23:19:57.496Z,2.40
2022-08-10T23:22:44.164Z,2.50
2022-08-10T23:25:18.387Z,2.40
2022-08-10T23:27:48.702Z,2.60
2022-08-10T23:30:18.027Z,2.60
2022-08-10T23:32:50.852Z,2.20
2022-08-10T23:36:30.100Z,2.30
2022-08-10T23:38:13.773Z,3.00
2022-08-10T23:40:48.676Z,2.40
2022-08-10T23:43:40.701Z,2.60
2022-08-10T23:46:13.012Z,2.40
2022-08-10T23:48:45.084Z,2.80
2022-08-10T23:51:16.753Z,2.30
2022-08-10T23:53:47.749Z,2.60
2022-08-10T23:56:24.334Z,2.40
2022-08-10T23:58:56.600Z,2.40
